In Rescue
 
Open Full Screen Window  High Contrast Mode
January 22, 2020 5:52 PM CST
Weather Information
Wind Direction
  ---
Wind Speed
  00 kt (0 mph)
Wind Gust
  00 kt (0 mph)
Altimeter
29.86 in
Visibility
7 SM
Temperature
-01° C
30° F
Dewpoint
-04° C
25° F
Humidity
80%
1hr Rain Fall
00.00 in.
24hr Rain Fall
00.00 in.
Sky Condition
Overcast @ 1,100 ft
MVFR

METAR KBFW 222352Z AUTO 00000KT 7SM OVC011 M01/M04 A2986 RMK AO2

FAA Disclaimer: The data displayed is for advisory purposes only and is not to be used for flight planning or operations.